createdAt,value
2022-10-25T00:02:23.118Z,100.00
2022-10-25T00:04:49.793Z,100.00
2022-10-25T00:07:16.359Z,100.00
2022-10-25T00:09:42.966Z,100.00
2022-10-25T00:12:09.790Z,100.00
2022-10-25T00:14:36.406Z,100.00
2022-10-25T00:17:02.951Z,100.00
2022-10-25T00:19:29.541Z,100.00
2022-10-25T00:21:56.143Z,100.00
2022-10-25T00:24:22.715Z,100.00
2022-10-25T00:26:49.258Z,100.00
2022-10-25T00:29:17.587Z,100.00
2022-10-25T00:31:44.309Z,100.00
2022-10-25T00:34:10.903Z,100.00
2022-10-25T00:36:37.522Z,100.00
2022-10-25T00:39:04.178Z,100.00
2022-10-25T00:41:33.411Z,100.00
2022-10-25T00:44:37.627Z,100.00
2022-10-25T00:47:06.055Z,100.00
2022-10-25T00:49:34.051Z,100.00
2022-10-25T00:52:05.088Z,100.00
2022-10-25T00:54:43.588Z,100.00
2022-10-25T00:57:16.444Z,100.00
2022-10-25T00:59:44.808Z,100.00
2022-10-25T01:02:12.072Z,100.00
2022-10-25T01:04:39.033Z,100.00
2022-10-25T01:07:05.570Z,100.00
2022-10-25T01:09:35.347Z,100.00
2022-10-25T01:12:02.319Z,100.00
2022-10-25T01:14:31.219Z,100.00
2022-10-25T01:17:08.929Z,100.00
2022-10-25T01:20:13.232Z,100.00
2022-10-25T01:22:49.938Z,100.00
2022-10-25T01:25:43.850Z,100.00
2022-10-25T01:28:47.910Z,100.00
2022-10-25T01:31:36.102Z,100.00
2022-10-25T01:34:12.881Z,100.00
2022-10-25T01:36:52.850Z,100.00
2022-10-25T01:39:31.455Z,100.00
2022-10-25T01:42:06.911Z,100.00
2022-10-25T01:45:02.259Z,100.00
2022-10-25T01:47:31.559Z,100.00
2022-10-25T01:50:05.438Z,100.00
2022-10-25T01:52:31.980Z,100.00
2022-10-25T01:54:58.527Z,100.00
2022-10-25T01:57:50.093Z,100.00
2022-10-25T02:00:20.043Z,100.00
2022-10-25T02:03:22.605Z,100.00
2022-10-25T02:05:59.021Z,100.00
2022-10-25T02:08:36.180Z,100.00
2022-10-25T02:11:28.220Z,100.00
2022-10-25T02:14:13.637Z,100.00
2022-10-25T02:16:49.262Z,100.00
2022-10-25T02:19:23.807Z,100.00
2022-10-25T02:21:53.932Z,100.00
2022-10-25T02:24:26.443Z,100.00
2022-10-25T02:26:54.488Z,100.00
2022-10-25T02:29:22.847Z,100.00
2022-10-25T02:31:49.595Z,100.00
2022-10-25T02:34:16.294Z,100.00
2022-10-25T02:36:42.850Z,100.00
2022-10-25T02:39:09.477Z,100.00
2022-10-25T02:41:36.029Z,100.00
2022-10-25T02:44:02.578Z,100.00
2022-10-25T02:46:29.132Z,100.00
2022-10-25T02:48:55.812Z,100.00
2022-10-25T02:51:23.025Z,100.00
2022-10-25T02:53:49.971Z,100.00
2022-10-25T02:56:19.713Z,100.00
2022-10-25T02:58:48.240Z,100.00
2022-10-25T03:01:16.289Z,100.00
2022-10-25T03:03:43.071Z,100.00
2022-10-25T03:06:11.260Z,100.00
2022-10-25T03:08:39.553Z,100.00
2022-10-25T03:11:07.452Z,100.00
2022-10-25T03:13:34.403Z,100.00
2022-10-25T03:16:01.206Z,100.00
2022-10-25T03:18:27.839Z,100.00
2022-10-25T03:20:59.405Z,100.00
2022-10-25T03:23:26.291Z,100.00
2022-10-25T03:25:57.965Z,100.00
2022-10-25T03:28:27.333Z,100.00
2022-10-25T03:30:54.730Z,100.00
2022-10-25T03:33:21.407Z,100.00
2022-10-25T03:35:52.665Z,100.00
2022-10-25T03:38:19.404Z,100.00
2022-10-25T03:40:46.081Z,100.00
2022-10-25T03:43:13.018Z,100.00
2022-10-25T03:45:39.650Z,100.00
2022-10-25T03:48:06.477Z,100.00
2022-10-25T03:50:33.121Z,100.00
2022-10-25T03:53:00.021Z,100.00
2022-10-25T03:55:26.643Z,100.00
2022-10-25T03:57:53.182Z,100.00
2022-10-25T04:00:19.843Z,100.00
2022-10-25T04:02:46.402Z,100.00
2022-10-25T04:05:13.055Z,100.00
2022-10-25T04:07:39.610Z,100.00
2022-10-25T04:10:06.487Z,100.00
2022-10-25T04:12:33.007Z,100.00
2022-10-25T04:15:02.332Z,100.00
2022-10-25T04:17:28.883Z,100.00
2022-10-25T04:19:55.448Z,100.00
2022-10-25T04:22:22.153Z,100.00
2022-10-25T04:24:48.804Z,100.00
2022-10-25T04:27:15.700Z,100.00
2022-10-25T04:29:42.250Z,100.00
2022-10-25T04:32:08.853Z,100.00
2022-10-25T04:34:35.473Z,100.00
2022-10-25T04:37:02.019Z,100.00
2022-10-25T04:39:28.734Z,100.00
2022-10-25T04:41:55.340Z,100.00
2022-10-25T04:44:21.996Z,100.00
2022-10-25T04:46:49.019Z,100.00
2022-10-25T04:49:16.152Z,100.00
2022-10-25T04:51:42.860Z,100.00
2022-10-25T04:54:11.432Z,100.00
2022-10-25T04:56:38.148Z,100.00
2022-10-25T04:59:04.715Z,100.00
2022-10-25T05:01:31.447Z,100.00
2022-10-25T05:03:58.073Z,100.00
2022-10-25T05:06:26.757Z,100.00
2022-10-25T05:08:54.386Z,100.00
2022-10-25T05:11:24.516Z,100.00
2022-10-25T05:13:51.319Z,100.00
2022-10-25T05:16:22.916Z,100.00
2022-10-25T05:18:50.044Z,100.00
2022-10-25T05:21:18.218Z,100.00
2022-10-25T05:23:45.774Z,100.00
2022-10-25T05:26:15.064Z,100.00
2022-10-25T05:28:43.426Z,100.00
2022-10-25T05:31:15.881Z,100.00
2022-10-25T05:33:46.191Z,100.00
2022-10-25T05:36:13.840Z,100.00
2022-10-25T05:38:41.271Z,100.00
2022-10-25T05:41:08.566Z,100.00
2022-10-25T05:43:35.131Z,100.00
2022-10-25T05:46:09.322Z,100.00
2022-10-25T05:48:37.324Z,100.00
2022-10-25T05:51:34.625Z,100.00
2022-10-25T05:54:04.115Z,100.00
2022-10-25T05:56:32.378Z,100.00
2022-10-25T05:59:09.262Z,100.00
2022-10-25T06:01:38.360Z,100.00
2022-10-25T06:04:05.534Z,100.00
2022-10-25T06:06:32.331Z,100.00
2022-10-25T06:09:00.978Z,100.00
2022-10-25T06:11:29.576Z,100.00
2022-10-25T06:13:56.248Z,100.00
2022-10-25T06:16:23.596Z,100.00
2022-10-25T06:18:50.290Z,100.00
2022-10-25T06:21:19.626Z,100.00
2022-10-25T06:23:47.579Z,100.00
2022-10-25T06:26:36.745Z,100.00
2022-10-25T06:29:05.331Z,100.00
2022-10-25T06:31:32.811Z,100.00
2022-10-25T06:34:03.059Z,100.00
2022-10-25T06:36:31.347Z,100.00
2022-10-25T06:39:03.567Z,100.00
2022-10-25T06:41:36.710Z,100.00
2022-10-25T06:44:06.626Z,100.00
2022-10-25T06:46:57.787Z,100.00
2022-10-25T06:49:23.326Z,100.00
2022-10-25T06:51:49.912Z,100.00
2022-10-25T06:54:16.509Z,100.00
2022-10-25T06:56:43.147Z,100.00
2022-10-25T06:59:09.706Z,100.00
2022-10-25T07:01:45.045Z,100.00
2022-10-25T07:04:11.806Z,100.00
2022-10-25T07:06:38.421Z,100.00
2022-10-25T07:09:06.198Z,100.00
2022-10-25T07:11:33.060Z,100.00
2022-10-25T07:14:00.651Z,100.00
2022-10-25T07:16:28.718Z,100.00
2022-10-25T07:19:03.181Z,100.00
2022-10-25T07:21:31.683Z,100.00
2022-10-25T07:23:58.271Z,100.00
2022-10-25T07:26:28.399Z,100.00
2022-10-25T07:28:56.897Z,100.00
2022-10-25T07:31:38.106Z,100.00
2022-10-25T07:34:05.598Z,100.00
2022-10-25T07:36:32.295Z,100.00
2022-10-25T07:38:59.186Z,100.00
2022-10-25T07:41:26.209Z,100.00
2022-10-25T07:43:52.799Z,100.00
2022-10-25T07:46:19.612Z,100.00
2022-10-25T07:48:46.202Z,100.00
2022-10-25T07:51:15.368Z,100.00
2022-10-25T07:53:42.696Z,100.00
2022-10-25T07:56:20.439Z,100.00
2022-10-25T07:58:50.014Z,100.00
2022-10-25T08:01:28.076Z,100.00
2022-10-25T08:03:55.441Z,100.00
2022-10-25T08:06:25.604Z,100.00
2022-10-25T08:08:52.554Z,100.00
2022-10-25T08:11:19.326Z,100.00
2022-10-25T08:13:49.788Z,100.00
2022-10-25T08:16:16.432Z,100.00
2022-10-25T08:18:44.014Z,100.00
2022-10-25T08:21:10.599Z,100.00
2022-10-25T08:23:37.179Z,100.00
2022-10-25T08:26:03.765Z,100.00
2022-10-25T08:28:31.316Z,100.00
2022-10-25T08:30:58.723Z,100.00
2022-10-25T08:33:25.306Z,100.00
2022-10-25T08:35:51.958Z,100.00
2022-10-25T08:38:18.535Z,100.00
2022-10-25T08:40:54.334Z,100.00
2022-10-25T08:43:30.184Z,100.00
2022-10-25T08:46:10.175Z,100.00
2022-10-25T08:48:41.202Z,100.00
2022-10-25T08:51:21.406Z,100.00
2022-10-25T08:56:25.738Z,100.00
2022-10-25T08:59:00.212Z,100.00
2022-10-25T09:01:40.841Z,100.00
2022-10-25T09:04:07.614Z,100.00
2022-10-25T09:06:47.693Z,99.42
2022-10-25T09:09:40.858Z,92.69
2022-10-25T09:12:22.605Z,95.74
2022-10-25T09:15:02.840Z,90.18
2022-10-25T09:17:41.401Z,88.66
2022-10-25T09:20:16.948Z,90.46
2022-10-25T09:22:49.491Z,86.93
2022-10-25T09:25:52.928Z,89.85
2022-10-25T09:28:26.117Z,89.67
2022-10-25T09:30:57.276Z,88.46
2022-10-25T09:33:28.360Z,86.77
2022-10-25T09:35:57.303Z,77.93
2022-10-25T09:38:57.243Z,81.66
2022-10-25T09:41:42.326Z,82.48
2022-10-25T09:44:36.255Z,81.05
2022-10-25T09:47:19.499Z,80.27
2022-10-25T09:50:00.128Z,76.25
2022-10-25T09:52:54.492Z,70.47
2022-10-25T09:55:33.493Z,67.85
2022-10-25T09:58:01.525Z,71.77
2022-10-25T10:00:28.355Z,67.07
2022-10-25T10:02:55.613Z,65.53
2022-10-25T10:05:22.684Z,61.62
2022-10-25T10:07:50.790Z,63.79
2022-10-25T10:10:24.844Z,66.89
2022-10-25T10:13:16.827Z,66.50
2022-10-25T10:15:52.654Z,64.09
2022-10-25T10:18:33.574Z,64.96
2022-10-25T10:21:06.038Z,66.71
2022-10-25T10:23:38.111Z,58.64
2022-10-25T10:26:25.727Z,61.07
2022-10-25T10:29:07.838Z,54.87
2022-10-25T10:31:44.398Z,54.19
2022-10-25T10:34:44.033Z,51.66
2022-10-25T10:37:21.079Z,51.28
2022-10-25T10:40:05.160Z,46.95
2022-10-25T10:43:16.551Z,44.63
2022-10-25T10:45:26.919Z,47.64
2022-10-25T10:47:53.439Z,47.44
2022-10-25T10:50:23.249Z,46.70
2022-10-25T10:52:55.130Z,48.38
2022-10-25T10:55:31.204Z,46.71
2022-10-25T10:58:32.729Z,44.99
2022-10-25T11:01:02.803Z,43.85
2022-10-25T11:03:42.407Z,43.29
2022-10-25T11:06:15.667Z,41.26
2022-10-25T11:08:47.738Z,37.52
2022-10-25T11:11:21.579Z,39.21
2022-10-25T11:13:58.665Z,40.07
2022-10-25T11:16:33.554Z,39.16
2022-10-25T11:19:15.523Z,39.16
2022-10-25T11:22:14.399Z,36.75
2022-10-25T11:24:59.178Z,37.91
2022-10-25T11:27:37.848Z,36.52
2022-10-25T11:30:21.119Z,36.59
2022-10-25T11:33:24.733Z,37.59
2022-10-25T11:36:13.183Z,36.70
2022-10-25T11:38:48.884Z,39.56
2022-10-25T11:41:24.706Z,38.29
2022-10-25T11:44:15.603Z,39.93
2022-10-25T11:46:48.340Z,39.10
2022-10-25T11:49:27.173Z,37.33
2022-10-25T11:51:53.733Z,37.84
2022-10-25T11:54:41.082Z,36.70
2022-10-25T11:57:32.672Z,34.62
2022-10-25T12:00:14.806Z,34.24
2022-10-25T12:03:15.536Z,35.87
2022-10-25T12:06:23.409Z,35.69
2022-10-25T12:09:20.643Z,35.61
2022-10-25T12:11:53.289Z,34.69
2022-10-25T12:14:28.433Z,34.19
2022-10-25T12:16:58.040Z,35.78
2022-10-25T12:19:28.511Z,36.30
2022-10-25T12:22:01.596Z,33.22
2022-10-25T12:24:39.552Z,34.58
2022-10-25T12:27:10.415Z,33.78
2022-10-25T12:29:44.167Z,31.38
2022-10-25T12:32:29.032Z,33.26
2022-10-25T12:34:59.418Z,32.80
2022-10-25T12:37:45.106Z,30.03
2022-10-25T12:40:17.999Z,32.89
2022-10-25T12:42:49.033Z,31.75
2022-10-25T12:45:57.499Z,32.36
2022-10-25T12:49:06.597Z,31.61
2022-10-25T12:51:45.172Z,33.10
2022-10-25T12:54:33.481Z,35.69
2022-10-25T12:57:30.794Z,34.55
2022-10-25T13:00:14.384Z,33.56
2022-10-25T13:02:59.231Z,34.04
2022-10-25T13:05:44.501Z,37.18
2022-10-25T13:08:13.086Z,37.58
2022-10-25T13:10:47.529Z,38.42
2022-10-25T13:13:16.822Z,38.06
2022-10-25T13:15:50.266Z,36.45
2022-10-25T13:18:39.998Z,36.70
2022-10-25T13:21:10.068Z,35.30
2022-10-25T13:23:42.824Z,34.78
2022-10-25T13:26:14.964Z,33.15
2022-10-25T13:28:49.927Z,30.88
2022-10-25T13:31:34.838Z,31.12
2022-10-25T13:34:13.325Z,32.13
2022-10-25T13:36:51.810Z,33.03
2022-10-25T13:39:25.412Z,37.81
2022-10-25T13:41:55.441Z,35.03
2022-10-25T13:44:26.476Z,32.94
2022-10-25T13:46:54.735Z,31.40
2022-10-25T13:49:27.447Z,32.91
2022-10-25T13:51:56.506Z,33.21
2022-10-25T13:54:23.674Z,33.75
2022-10-25T13:56:53.943Z,37.78
2022-10-25T13:59:50.037Z,39.67
2022-10-25T14:02:20.120Z,36.24
2022-10-25T14:04:47.134Z,35.07
2022-10-25T14:07:42.485Z,34.19
2022-10-25T14:10:16.890Z,35.44
2022-10-25T14:12:50.281Z,36.32
2022-10-25T14:15:35.744Z,36.50
2022-10-25T14:18:07.689Z,36.62
2022-10-25T14:20:35.463Z,34.92
2022-10-25T14:23:03.772Z,33.96
2022-10-25T14:25:39.427Z,33.76
2022-10-25T14:28:16.425Z,35.15
2022-10-25T14:30:46.223Z,35.86
2022-10-25T14:33:27.959Z,36.17
2022-10-25T14:36:11.619Z,35.03
2022-10-25T14:38:53.895Z,33.36
2022-10-25T14:41:26.569Z,32.98
2022-10-25T14:43:54.212Z,35.72
2022-10-25T14:46:23.577Z,37.03
2022-10-25T14:48:54.730Z,36.75
2022-10-25T14:51:29.857Z,38.04
2022-10-25T14:54:01.661Z,36.84
2022-10-25T14:56:30.072Z,36.87
2022-10-25T14:58:57.627Z,39.83
2022-10-25T15:01:24.600Z,44.32
2022-10-25T15:03:54.518Z,45.42
2022-10-25T15:06:24.863Z,53.40
2022-10-25T15:09:29.007Z,58.17
2022-10-25T15:12:11.760Z,66.17
2022-10-25T15:14:38.439Z,68.36
2022-10-25T15:17:29.234Z,73.27
2022-10-25T15:20:07.468Z,74.92
2022-10-25T15:22:46.857Z,74.35
2022-10-25T15:25:17.004Z,78.26
2022-10-25T15:27:43.925Z,81.81
2022-10-25T15:30:37.684Z,87.87
2022-10-25T15:33:24.230Z,91.11
2022-10-25T15:35:51.986Z,96.34
2022-10-25T15:38:19.431Z,98.82
2022-10-25T15:40:47.235Z,100.00
2022-10-25T15:43:13.965Z,100.00
2022-10-25T15:45:41.177Z,100.00
2022-10-25T15:48:14.078Z,100.00
2022-10-25T15:50:47.057Z,100.00
2022-10-25T15:53:13.605Z,100.00
2022-10-25T15:55:40.176Z,100.00
2022-10-25T15:58:09.795Z,100.00
2022-10-25T16:00:38.835Z,100.00
2022-10-25T16:03:08.396Z,100.00
2022-10-25T16:05:37.136Z,100.00
2022-10-25T16:08:04.753Z,100.00
2022-10-25T16:10:32.100Z,100.00
2022-10-25T16:13:05.873Z,100.00
2022-10-25T16:15:32.987Z,100.00
2022-10-25T16:17:59.517Z,100.00
2022-10-25T16:20:29.590Z,100.00
2022-10-25T16:22:57.466Z,100.00
2022-10-25T16:25:30.479Z,100.00
2022-10-25T16:28:00.055Z,100.00
2022-10-25T16:30:30.785Z,100.00
2022-10-25T16:32:57.367Z,100.00
2022-10-25T16:35:24.668Z,100.00
2022-10-25T16:37:51.984Z,100.00
2022-10-25T16:40:20.872Z,100.00
2022-10-25T16:42:48.528Z,100.00
2022-10-25T16:45:22.181Z,100.00
2022-10-25T16:47:49.077Z,100.00
2022-10-25T16:50:15.735Z,100.00
2022-10-25T16:52:42.381Z,100.00
2022-10-25T16:55:10.065Z,100.00
2022-10-25T16:57:36.704Z,100.00
2022-10-25T17:00:04.360Z,100.00
2022-10-25T17:02:31.001Z,100.00
2022-10-25T17:04:57.580Z,100.00
2022-10-25T17:07:24.423Z,100.00
2022-10-25T17:09:51.003Z,100.00
2022-10-25T17:12:17.779Z,100.00
2022-10-25T17:14:44.332Z,100.00
2022-10-25T17:17:10.972Z,100.00
2022-10-25T17:19:37.579Z,100.00
2022-10-25T17:22:04.205Z,100.00
2022-10-25T17:24:33.050Z,100.00
2022-10-25T17:26:59.674Z,100.00
2022-10-25T17:29:26.287Z,100.00
2022-10-25T17:31:53.036Z,100.00
2022-10-25T17:34:19.638Z,100.00
2022-10-25T17:36:46.253Z,100.00
2022-10-25T17:39:13.182Z,100.00
2022-10-25T17:41:39.737Z,100.00
2022-10-25T17:44:06.290Z,100.00
2022-10-25T17:46:32.955Z,100.00
2022-10-25T17:49:03.287Z,100.00
2022-10-25T17:51:31.086Z,100.00
2022-10-25T17:53:57.723Z,100.00
2022-10-25T17:56:26.341Z,100.00
2022-10-25T17:58:54.302Z,100.00
2022-10-25T18:01:26.514Z,100.00
2022-10-25T18:03:54.746Z,100.00
2022-10-25T18:08:56.827Z,100.00
2022-10-25T18:11:25.918Z,100.00
2022-10-25T18:13:54.887Z,100.00
2022-10-25T18:16:23.203Z,100.00
2022-10-25T18:18:49.740Z,100.00
2022-10-25T18:21:16.446Z,100.00
2022-10-25T18:23:43.124Z,100.00
2022-10-25T18:26:13.273Z,100.00
2022-10-25T18:28:40.115Z,100.00
2022-10-25T18:31:09.061Z,100.00
2022-10-25T18:33:38.002Z,100.00
2022-10-25T18:36:11.322Z,100.00
2022-10-25T18:38:38.129Z,100.00
2022-10-25T18:41:10.355Z,100.00
2022-10-25T18:43:36.949Z,100.00
2022-10-25T18:46:03.807Z,100.00
2022-10-25T18:48:30.557Z,100.00
2022-10-25T18:51:03.250Z,100.00
2022-10-25T18:53:30.750Z,100.00
2022-10-25T18:55:57.720Z,100.00
2022-10-25T18:58:24.277Z,100.00
2022-10-25T19:00:50.856Z,100.00
2022-10-25T19:03:17.467Z,100.00
2022-10-25T19:05:44.065Z,100.00
2022-10-25T19:08:12.119Z,100.00
2022-10-25T19:10:39.839Z,100.00
2022-10-25T19:13:07.691Z,100.00
2022-10-25T19:15:34.520Z,100.00
2022-10-25T19:18:01.195Z,100.00
2022-10-25T19:20:27.785Z,100.00
2022-10-25T19:22:58.580Z,100.00
2022-10-25T19:25:29.723Z,100.00
2022-10-25T19:27:56.837Z,100.00
2022-10-25T19:30:24.228Z,100.00
2022-10-25T19:32:51.075Z,100.00
2022-10-25T19:35:18.455Z,100.00
2022-10-25T19:37:45.321Z,100.00
2022-10-25T19:40:12.175Z,100.00
2022-10-25T19:42:38.766Z,100.00
2022-10-25T19:45:05.770Z,100.00
2022-10-25T19:47:34.705Z,100.00
2022-10-25T19:50:03.320Z,100.00
2022-10-25T19:52:29.894Z,100.00
2022-10-25T19:54:56.504Z,100.00
2022-10-25T19:57:23.115Z,100.00
2022-10-25T19:59:49.650Z,100.00
2022-10-25T20:02:16.246Z,100.00
2022-10-25T20:04:42.911Z,100.00
2022-10-25T20:07:09.459Z,100.00
2022-10-25T20:09:36.010Z,100.00
2022-10-25T20:12:02.578Z,100.00
2022-10-25T20:14:30.779Z,100.00
2022-10-25T20:16:57.399Z,100.00
2022-10-25T20:19:24.021Z,100.00
2022-10-25T20:21:50.678Z,100.00
2022-10-25T20:24:17.299Z,100.00
2022-10-25T20:26:46.990Z,100.00
2022-10-25T20:29:20.167Z,100.00
2022-10-25T20:31:48.176Z,100.00
2022-10-25T20:34:14.719Z,100.00
2022-10-25T20:36:41.256Z,100.00
2022-10-25T20:39:07.818Z,100.00
2022-10-25T20:41:35.274Z,100.00
2022-10-25T20:44:05.758Z,100.00
2022-10-25T20:46:33.722Z,100.00
2022-10-25T20:49:01.991Z,100.00
2022-10-25T20:51:28.826Z,100.00
2022-10-25T20:53:56.904Z,100.00
2022-10-25T20:56:23.776Z,100.00
2022-10-25T20:58:50.613Z,100.00
2022-10-25T21:01:17.529Z,100.00
2022-10-25T21:03:44.209Z,100.00
2022-10-25T21:06:12.272Z,100.00
2022-10-25T21:08:39.337Z,100.00
2022-10-25T21:11:07.787Z,100.00
2022-10-25T21:13:35.488Z,100.00
2022-10-25T21:16:06.662Z,100.00
2022-10-25T21:18:34.011Z,100.00
2022-10-25T21:21:02.784Z,100.00
2022-10-25T21:23:29.430Z,100.00
2022-10-25T21:26:04.439Z,100.00
2022-10-25T21:28:33.706Z,100.00
2022-10-25T21:31:05.243Z,100.00
2022-10-25T21:33:31.841Z,100.00
2022-10-25T21:36:03.431Z,100.00
2022-10-25T21:38:29.995Z,100.00
2022-10-25T21:41:06.837Z,100.00
2022-10-25T21:43:33.582Z,100.00
2022-10-25T21:46:00.162Z,100.00
2022-10-25T21:48:26.840Z,100.00
2022-10-25T21:50:58.560Z,100.00
2022-10-25T21:53:25.337Z,100.00
2022-10-25T21:55:52.071Z,100.00
2022-10-25T21:58:18.637Z,100.00
2022-10-25T22:00:45.191Z,100.00
2022-10-25T22:03:11.762Z,100.00
2022-10-25T22:05:43.217Z,100.00
2022-10-25T22:08:09.781Z,100.00
2022-10-25T22:10:36.352Z,100.00
2022-10-25T22:13:02.955Z,100.00
2022-10-25T22:15:29.649Z,100.00
2022-10-25T22:17:56.228Z,100.00
2022-10-25T22:20:22.809Z,100.00
2022-10-25T22:22:49.715Z,100.00
2022-10-25T22:25:16.478Z,100.00
2022-10-25T22:30:11.119Z,100.00
2022-10-25T22:32:37.643Z,100.00
2022-10-25T22:35:04.398Z,100.00
2022-10-25T22:37:30.941Z,100.00
2022-10-25T22:39:57.461Z,100.00
2022-10-25T22:42:25.323Z,100.00
2022-10-25T22:44:51.869Z,100.00
2022-10-25T22:47:18.454Z,100.00
2022-10-25T22:49:44.990Z,100.00
2022-10-25T22:52:13.705Z,100.00
2022-10-25T22:54:40.246Z,100.00
2022-10-25T22:57:06.778Z,100.00
2022-10-25T22:59:33.358Z,100.00
2022-10-25T23:01:59.894Z,100.00
2022-10-25T23:04:26.539Z,100.00
2022-10-25T23:06:53.167Z,100.00
2022-10-25T23:09:19.746Z,100.00
2022-10-25T23:11:46.625Z,100.00
2022-10-25T23:14:16.570Z,100.00
2022-10-25T23:16:45.450Z,100.00
2022-10-25T23:19:12.130Z,100.00
2022-10-25T23:21:38.718Z,100.00
2022-10-25T23:24:05.696Z,100.00
2022-10-25T23:26:34.344Z,100.00
2022-10-25T23:29:01.279Z,100.00
2022-10-25T23:31:28.910Z,100.00
2022-10-25T23:33:57.525Z,100.00
2022-10-25T23:36:26.645Z,100.00
2022-10-25T23:38:54.247Z,100.00
2022-10-25T23:41:22.069Z,100.00
2022-10-25T23:43:49.041Z,100.00
2022-10-25T23:46:15.642Z,100.00
2022-10-25T23:48:42.310Z,100.00
2022-10-25T23:51:15.831Z,100.00
2022-10-25T23:53:43.076Z,100.00
2022-10-25T23:56:11.996Z,100.00
2022-10-25T23:58:41.599Z,100.00
